Overview Statistics Trail Chart Weather Telemetry Raw packets
 

This is the latest recevied weather packets stored in our database for station/object W4UWO. If no packets are shown the sender has not sent any weather packets the latest 10 day(s).

<< 81 82 83 84 85 86 87 >>
Time Temp. Humidity Pressure Rain* Wind** Luminosity Snow
1788028416 33.33° C 36% 1020.4 hPa 0 mm - 877 W/m² -
1788028112 33.89° C 36% 1020.5 hPa 0 mm - 868 W/m² -
1788027807 33.89° C 37% 1020.5 hPa 0 mm - 879 W/m² -
1788027507 33.89° C 40% 1020.7 hPa 0 mm - 887 W/m² -
1788027202 33.89° C 40% 1020.7 hPa 0 mm - 899 W/m² -
1788026901 33.33° C 41% 1020.9 hPa 0 mm - 913 W/m² -
1788026596 33.89° C 39% 1020.8 hPa 0 mm - 917 W/m² -
1788026297 33.33° C 46% 1020.8 hPa 0 mm - 900 W/m² -
1788025993 32.78° C 45% 1021 hPa 0 mm - 891 W/m² -
1788025691 32.22° C 47% 1021 hPa 0 mm - 883 W/m² -
1788025390 32.78° C 45% 1021 hPa 0 mm - 897 W/m² -
1788025087 33.33° C 45% 1021.2 hPa 0 mm - 879 W/m² -
1788024786 32.78° C 45% 1021.1 hPa 0 mm - 877 W/m² -
1788024482 31.67° C 47% 1021.2 hPa 0 mm - 855 W/m² -
1788024181 32.22° C 45% 1021.2 hPa 0 mm - 838 W/m² -
1788023877 32.78° C 45% 1021.5 hPa 0 mm - 851 W/m² -
1788023572 32.78° C 48% 1021.4 hPa 0 mm - 828 W/m² -
1788023267 33.33° C 47% 1021.5 hPa 0 mm - 828 W/m² -
1788022962 32.78° C 47% 1021.3 hPa 0 mm - 828 W/m² -
1788022660 32.22° C 49% 1021.8 hPa 0 mm - 820 W/m² -
1788022359 32.22° C 48% 1021.4 hPa 0 mm - 809 W/m² -
1788022059 31.67° C 54% 1021.5 hPa 0 mm - 806 W/m² -
1788021753 31.11° C 53% 1021.7 hPa 0 mm - 802 W/m² -
1788021452 31.11° C 54% 1021.8 hPa 0 mm - 797 W/m² -
1788021146 31.67° C 53% 1021.9 hPa 0 mm - 787 W/m² -

* Rain latest hour (hover to see other rain measurements)
** Current wind speed in m/s (hover to see current wind gust speed)